Аэропорт: Уральск. Уральск

ICAO: UARR

METAR:
2018/07/16 19:00
UARR 161900Z 04004MPS 9999 SCT050CB OVC100 24/17 Q1005 R22/CLRD70 NOSIG RMK QFE750/1000
METAR:
2015/07/31 21:21
TAF 
      AMD TAF 
      AMD UARR 312316Z 3121/0109 VRB02MPS CAVOK 
      TEMPO 0106/0109 18005MPS